Terminal Aerodrome Forecast
Issued by NWS Jackson, KY

Home | Current Version | Previous Version | Text Only | Print | Product List | Glossary On
Versions: 1 2 3 4 5 6 7 8 9 10 11 12 13 14 15 16 17 18
000
FTUS43 KJKL 280539
TAFLOZ
TAF
KLOZ 280539Z 2806/2906 00000KT 3SM SHRA BR OVC020
     FM280700 20004KT P6SM VCTS OVC035CB
     FM281400 22007KT P6SM -SHRA VCTS BKN030CB
     FM281600 23008KT P6SM VCSH BKN040
     FM282000 25011KT P6SM SCT120
     FM290400 00000KT P6SM SCT200=

USA.gov is the U.S. government's official web portal to all federal, state and local government web resources and services.